Aviation Digital Data Service (ADDS)

Output produced by METARs form (1500 UTC 27 April 2017)
found at http://aviationweather.gov/adds/metars/
 
KPSM 271359Z 2714/2812 00000KT 1SM BR OVC002 
     FM271600 12004KT 3SM BR OVC005